Terminal Aerodrome Forecast
Issued by NWS

Home | Current Version | Previous Version | Text Only | Print | Product List | Glossary On
Versions: 1 2 3 4 5 6 7 8 9 10 11 12 13 14 15 16
000
FTUS42 KMLB 240523
TAFSFB
TAF
KSFB 240523Z 2406/2506 07006KT P6SM FEW030 SCT050
     FM241400 11011KT P6SM FEW040
     FM241800 10014G22KT P6SM SCT040 BKN060
     FM250000 09012KT P6SM FEW030 SCT250=

USA.gov is the U.S. government's official web portal to all federal, state and local government web resources and services.